Time;durP1;ratioP1;P1;durP2;ratioP2;P2;SDS_P1;SDS_P2;PMS_P1;PMS_P2;Temp;Humidity;BMP_temperature;BMP_pressure;BME280_temperature;BME280_humidity;BME280_pressure;Samples;Min_cycle;Max_cycle;Signal;HPM_P1;HPM_P2
2022/05/08 00:00:30;;;;;;;5.60;5.10;;;18.30;36.10;;;;;;5034902;28;20190;-33
2022/05/08 00:02:57;;;;;;;7.00;6.27;;;18.20;35.60;;;;;;5034596;28;20193;-33
2022/05/08 00:05:26;;;;;;;8.50;6.32;;;18.20;35.60;;;;;;5034990;28;20178;-32
2022/05/08 00:07:52;;;;;;;6.95;5.45;;;18.10;36.00;;;;;;5034751;28;20181;-32
2022/05/08 00:10:18;;;;;;;7.00;5.87;;;18.10;36.00;;;;;;5034548;28;20543;-32
2022/05/08 00:12:44;;;;;;;8.00;5.47;;;18.00;35.90;;;;;;5034325;28;20205;-32
2022/05/08 00:15:10;;;;;;;7.50;5.45;;;17.90;37.00;;;;;;5034491;28;20870;-32
2022/05/08 00:17:36;;;;;;;6.53;5.43;;;17.90;36.30;;;;;;5034548;28;20219;-33
2022/05/08 00:20:05;;;;;;;9.23;5.57;;;17.80;36.30;;;;;;5034478;28;20253;-33
2022/05/08 00:22:31;;;;;;;7.85;6.45;;;17.80;36.10;;;;;;5034155;28;20645;-32
2022/05/08 00:24:56;;;;;;;9.33;6.20;;;17.80;36.20;;;;;;5034409;28;20174;-32
2022/05/08 00:27:22;;;;;;;8.40;6.10;;;17.70;36.00;;;;;;5034435;28;20545;-32
2022/05/08 00:29:48;;;;;;;8.20;6.47;;;17.70;36.20;;;;;;5034150;28;20202;-33
2022/05/08 00:32:14;;;;;;;10.50;5.73;;;17.70;36.20;;;;;;5034253;28;20738;-32
2022/05/08 00:34:40;;;;;;;8.40;5.87;;;17.70;36.20;;;;;;5034119;28;20928;-33
2022/05/08 00:37:05;;;;;;;5.97;5.40;;;17.60;36.40;;;;;;5034190;28;20658;-33
2022/05/08 00:39:34;;;;;;;13.63;6.47;;;17.60;36.20;;;;;;5034228;28;20228;-32
2022/05/08 00:42:00;;;;;;;8.02;5.82;;;17.60;36.10;;;;;;5033849;28;20240;-32
2022/05/08 00:44:26;;;;;;;7.30;6.60;;;17.60;36.30;;;;;;5033844;28;20205;-33
2022/05/08 00:46:52;;;;;;;13.10;5.60;;;17.50;36.30;;;;;;5033998;28;20174;-32
2022/05/08 00:49:18;;;;;;;9.60;6.00;;;17.50;36.20;;;;;;5033864;28;20405;-33
2022/05/08 00:51:47;;;;;;;6.95;5.25;;;17.40;36.20;;;;;;5033750;28;20166;-32
2022/05/08 00:54:13;;;;;;;11.70;5.03;;;17.40;36.20;;;;;;5033837;28;20264;-32
2022/05/08 00:56:40;;;;;;;5.82;5.00;;;17.40;36.40;;;;;;5034057;28;20249;-32
2022/05/08 00:59:05;;;;;;;5.22;4.72;;;17.30;36.40;;;;;;5033658;28;20176;-32
2022/05/08 01:01:31;;;;;;;5.50;4.80;;;17.30;36.70;;;;;;5033544;28;20166;-32
2022/05/08 01:03:57;;;;;;;7.67;4.53;;;17.30;36.70;;;;;;5033625;28;20193;-32
2022/05/08 01:06:23;;;;;;;5.83;5.00;;;17.30;36.80;;;;;;5033435;28;20417;-32
2022/05/08 01:08:50;;;;;;;8.17;5.37;;;17.20;36.80;;;;;;5033625;28;20630;-32
2022/05/08 01:11:17;;;;;;;7.18;5.80;;;17.20;36.90;;;;;;5033257;28;20229;-33
2022/05/08 01:13:44;;;;;;;5.32;4.70;;;17.20;36.80;;;;;;5033323;28;20213;-34
2022/05/08 01:16:16;;;;;;;5.28;4.63;;;17.10;36.80;;;;;;5033617;28;20173;-33
2022/05/08 01:18:43;;;;;;;5.88;5.28;;;17.10;37.00;;;;;;5033431;28;20585;-33
2022/05/08 01:21:10;;;;;;;11.40;5.60;;;17.10;37.10;;;;;;5033214;28;20382;-33
2022/05/08 01:23:37;;;;;;;6.35;4.45;;;17.00;37.20;;;;;;5033250;28;20271;-33
2022/05/08 01:26:03;;;;;;;7.65;5.32;;;17.00;37.10;;;;;;5033203;28;20635;-32
2022/05/08 01:28:29;;;;;;;8.53;4.87;;;17.00;37.50;;;;;;5033257;28;20185;-32
2022/05/08 01:30:56;;;;;;;7.63;5.88;;;16.90;37.30;;;;;;5033007;28;20213;-32
2022/05/08 01:33:22;;;;;;;5.88;4.45;;;16.90;37.30;;;;;;5033040;28;20531;-32
2022/05/08 01:35:49;;;;;;;7.97;5.07;;;16.80;37.30;;;;;;5033137;28;20170;-32
2022/05/08 01:38:17;;;;;;;8.60;5.85;;;16.80;37.90;;;;;;5033087;28;20189;-32
2022/05/08 01:40:43;;;;;;;7.45;5.80;;;16.70;37.90;;;;;;5032690;28;20698;-32
2022/05/08 01:43:10;;;;;;;6.15;4.38;;;16.60;38.40;;;;;;5032964;28;20267;-32
2022/05/08 01:45:36;;;;;;;7.78;6.30;;;16.60;37.70;;;;;;5033140;28;20180;-32
2022/05/08 01:50:48;;;;;;;8.98;5.03;;;16.50;37.60;;;;;;5032588;28;20196;-32
2022/05/08 01:53:14;;;;;;;5.90;5.18;;;16.50;38.40;;;;;;5032826;28;20198;-32
2022/05/08 01:55:40;;;;;;;9.10;4.90;;;16.40;38.20;;;;;;5032720;28;20215;-32
2022/05/08 01:58:05;;;;;;;8.63;5.35;;;16.30;38.30;;;;;;5032849;28;20427;-32
2022/05/08 02:00:32;;;;;;;6.10;5.23;;;16.30;38.70;;;;;;5032569;28;20178;-32
2022/05/08 02:02:59;;;;;;;5.45;4.90;;;16.20;38.70;;;;;;5033014;28;20192;-32
2022/05/08 02:05:28;;;;;;;7.25;6.47;;;16.10;38.40;;;;;;5044051;28;20176;-32
2022/05/08 02:07:53;;;;;;;7.30;5.03;;;16.10;38.40;;;;;;5052358;28;20165;-32
2022/05/08 02:10:19;;;;;;;7.47;6.03;;;16.10;38.60;;;;;;5052192;28;20205;-32
2022/05/08 02:12:45;;;;;;;7.30;5.17;;;16.10;38.40;;;;;;5051988;28;20204;-32
2022/05/08 02:15:12;;;;;;;8.27;5.03;;;16.10;38.40;;;;;;5052366;28;20156;-32
2022/05/08 02:17:38;;;;;;;6.30;5.35;;;16.10;38.20;;;;;;5052142;28;20408;-32
2022/05/08 02:20:06;;;;;;;7.25;5.05;;;16.10;38.30;;;;;;5052195;28;20250;-32
2022/05/08 02:22:39;;;;;;;6.50;5.15;;;16.10;38.30;;;;;;5052203;28;20192;-33
2022/05/08 02:25:07;;;;;;;5.95;5.35;;;16.00;38.90;;;;;;5052379;28;20209;-33
2022/05/08 02:27:37;;;;;;;7.75;5.57;;;16.00;38.70;;;;;;5052341;28;20181;-33
2022/05/08 02:30:05;;;;;;;5.05;4.55;;;16.00;38.70;;;;;;5052635;28;20196;-33
2022/05/08 02:32:31;;;;;;;6.28;5.13;;;16.00;38.40;;;;;;5050443;28;20272;-33
2022/05/08 02:34:56;;;;;;;5.40;4.13;;;16.00;38.70;;;;;;5052085;28;20198;-33
2022/05/08 02:37:22;;;;;;;8.00;4.90;;;16.00;38.50;;;;;;5048574;28;20181;-33
2022/05/08 02:39:48;;;;;;;6.47;4.60;;;16.00;38.60;;;;;;5028869;28;20180;-33
2022/05/08 02:42:13;;;;;;;8.00;4.80;;;16.00;38.60;;;;;;5051630;28;20179;-33
2022/05/08 02:44:39;;;;;;;6.73;4.83;;;15.90;38.70;;;;;;5051783;28;20259;-33
2022/05/08 02:47:05;;;;;;;5.60;4.63;;;15.90;38.90;;;;;;5051892;28;20260;-33
2022/05/08 02:49:30;;;;;;;8.83;5.50;;;15.90;38.90;;;;;;5051733;28;20204;-33
2022/05/08 02:51:56;;;;;;;6.43;4.80;;;15.90;39.10;;;;;;5051707;28;20542;-33
2022/05/08 02:54:22;;;;;;;6.10;5.30;;;15.80;38.80;;;;;;5051772;28;20193;-33
2022/05/08 02:59:32;;;;;;;5.18;4.68;;;15.80;38.70;;;;;;5052134;28;20241;-33
2022/05/08 03:01:57;;;;;;;5.80;4.10;;;15.80;38.90;;;;;;5051713;28;20218;-33
2022/05/08 03:04:23;;;;;;;5.27;4.10;;;15.80;39.00;;;;;;5051844;28;20283;-33
2022/05/08 03:06:48;;;;;;;8.20;5.40;;;15.70;39.00;;;;;;5051866;28;20218;-33
2022/05/08 03:09:14;;;;;;;6.80;4.93;;;15.70;39.00;;;;;;5051699;28;20169;-33
2022/05/08 03:11:40;;;;;;;4.80;4.27;;;15.60;39.20;;;;;;5051639;28;20205;-33
2022/05/08 03:14:05;;;;;;;7.13;4.67;;;15.70;39.00;;;;;;5051489;28;20224;-33
2022/05/08 03:16:31;;;;;;;5.57;4.90;;;15.60;39.10;;;;;;5051565;28;20169;-33
2022/05/08 03:18:57;;;;;;;6.07;4.60;;;15.60;39.40;;;;;;5051944;28;20256;-33
2022/05/08 03:21:23;;;;;;;5.33;3.90;;;15.60;39.30;;;;;;5051407;28;20283;-33
2022/05/08 03:23:49;;;;;;;8.90;5.30;;;15.60;39.30;;;;;;5051729;28;20427;-33
2022/05/08 03:26:19;;;;;;;6.40;4.30;;;15.50;39.20;;;;;;5051793;28;20183;-33
2022/05/08 03:28:45;;;;;;;6.95;4.95;;;15.50;39.40;;;;;;5050112;28;20182;-32
2022/05/08 03:31:11;;;;;;;5.20;4.60;;;15.50;39.30;;;;;;5046517;28;20288;-33
2022/05/08 03:33:38;;;;;;;5.40;4.90;;;15.50;39.70;;;;;;5055503;28;20272;-33
2022/05/08 03:36:04;;;;;;;6.72;4.63;;;15.50;39.50;;;;;;5055441;28;20404;-33
2022/05/08 03:38:30;;;;;;;6.93;5.28;;;15.50;39.40;;;;;;5055183;28;20169;-33
2022/05/08 03:40:57;;;;;;;9.33;4.13;;;15.50;39.30;;;;;;5054801;28;20223;-33
2022/05/08 03:43:23;;;;;;;8.38;6.28;;;15.50;39.40;;;;;;5055017;28;20185;-33
2022/05/08 03:45:49;;;;;;;7.50;5.22;;;15.60;39.60;;;;;;5055077;28;20169;-33
2022/05/08 03:48:16;;;;;;;5.95;5.35;;;15.60;39.70;;;;;;5055037;28;20208;-33
2022/05/08 03:50:42;;;;;;;7.05;5.30;;;15.60;39.50;;;;;;5054992;28;20212;-33
2022/05/08 03:53:08;;;;;;;5.97;4.80;;;15.60;39.70;;;;;;5055102;28;20272;-33
2022/05/08 03:55:34;;;;;;;9.60;5.35;;;15.60;39.80;;;;;;5054922;28;20220;-33
2022/05/08 03:58:00;;;;;;;7.57;6.10;;;15.60;39.80;;;;;;5054850;28;20637;-32
2022/05/08 04:00:26;;;;;;;6.80;5.10;;;15.60;39.90;;;;;;5054607;28;20495;-33
2022/05/08 04:02:53;;;;;;;5.18;4.55;;;15.70;39.70;;;;;;5054610;28;20432;-33
2022/05/08 04:05:19;;;;;;;5.50;4.80;;;15.70;40.10;;;;;;5054729;28;20634;-33
2022/05/08 04:07:46;;;;;;;5.30;4.65;;;15.80;40.40;;;;;;5048014;28;20178;-33
2022/05/08 04:10:12;;;;;;;5.30;4.80;;;15.80;40.30;;;;;;5052524;28;20193;-33
2022/05/08 04:12:39;;;;;;;8.05;5.50;;;15.80;40.20;;;;;;5054223;28;20205;-33
2022/05/08 04:16:15;;;;;;;8.07;5.35;;;15.80;40.10;;;;;;5054605;28;20636;-33
2022/05/08 04:17:52;;;;;;;6.82;5.13;;;15.90;39.90;;;;;;5054298;28;20173;-33
2022/05/08 04:20:17;;;;;;;6.23;4.20;;;15.90;39.70;;;;;;5054305;28;20655;-33
2022/05/08 04:25:27;;;;;;;4.97;4.55;;;16.10;39.70;;;;;;5054568;28;20206;-33
2022/05/08 04:27:53;;;;;;;9.00;5.00;;;16.10;39.70;;;;;;5054359;28;20189;-33
2022/05/08 04:30:19;;;;;;;10.00;5.33;;;16.10;39.70;;;;;;5054103;28;20201;-33
2022/05/08 04:32:44;;;;;;;5.73;4.90;;;16.20;39.40;;;;;;5053996;28;20192;-33
2022/05/08 04:35:10;;;;;;;6.83;4.97;;;16.30;39.40;;;;;;5054485;28;20193;-33
2022/05/08 04:37:35;;;;;;;5.67;4.60;;;16.30;39.40;;;;;;5054085;28;20178;-33
2022/05/08 04:40:01;;;;;;;7.30;5.33;;;16.40;39.20;;;;;;5053937;28;20178;-33
2022/05/08 04:42:27;;;;;;;6.00;4.70;;;16.50;39.20;;;;;;5053098;28;20259;-33
2022/05/08 04:44:54;;;;;;;7.57;5.27;;;16.50;39.10;;;;;;5053927;28;20219;-33
2022/05/08 04:47:21;;;;;;;5.07;4.35;;;16.60;39.20;;;;;;5053949;28;20222;-33
2022/05/08 04:49:46;;;;;;;6.53;5.00;;;16.70;39.10;;;;;;5054106;28;20197;-33
2022/05/08 04:52:12;;;;;;;8.07;4.13;;;16.70;39.00;;;;;;5053627;28;20172;-33
2022/05/08 04:54:38;;;;;;;5.20;4.40;;;16.80;39.00;;;;;;5053716;28;20193;-33
2022/05/08 04:57:04;;;;;;;6.93;5.90;;;16.80;38.80;;;;;;5053782;28;20165;-33
2022/05/08 04:59:29;;;;;;;5.30;4.80;;;16.80;38.80;;;;;;5053834;28;20250;-33
2022/05/08 05:01:57;;;;;;;8.00;5.83;;;16.80;39.10;;;;;;5053671;28;20545;-33
2022/05/08 05:04:22;;;;;;;10.95;4.50;;;16.80;38.70;;;;;;5053602;28;20188;-33
2022/05/08 05:06:49;;;;;;;9.53;5.60;;;16.80;39.00;;;;;;5053582;28;20537;-33
2022/05/08 05:09:15;;;;;;;6.10;4.88;;;16.80;39.00;;;;;;5053705;28;20260;-33
2022/05/08 05:11:40;;;;;;;5.50;5.00;;;16.80;38.80;;;;;;5053159;28;20346;-33
2022/05/08 05:14:06;;;;;;;7.00;4.83;;;16.80;38.90;;;;;;5053281;28;20450;-33
2022/05/08 05:16:31;;;;;;;5.80;4.63;;;16.90;39.00;;;;;;5053425;28;20537;-33
2022/05/08 05:18:57;;;;;;;10.13;5.50;;;16.90;39.10;;;;;;5053288;28;20176;-33
2022/05/08 05:21:23;;;;;;;5.57;5.03;;;17.00;39.20;;;;;;5053050;28;20258;-33
2022/05/08 05:23:48;;;;;;;6.13;5.30;;;17.00;39.10;;;;;;5053089;28;20186;-33
2022/05/08 05:26:14;;;;;;;5.23;4.60;;;17.00;39.10;;;;;;5053228;28;20554;-33
2022/05/08 05:28:40;;;;;;;6.17;5.00;;;17.00;39.10;;;;;;5053132;28;20176;-33
2022/05/08 05:31:05;;;;;;;5.23;4.17;;;17.00;39.10;;;;;;5052760;28;20205;-33
2022/05/08 05:33:31;;;;;;;5.43;4.90;;;17.10;39.10;;;;;;5052992;28;20280;-33
2022/05/08 05:35:57;;;;;;;8.10;5.20;;;17.10;38.90;;;;;;5053012;28;20176;-33
2022/05/08 05:38:22;;;;;;;5.70;5.07;;;17.10;39.00;;;;;;5052867;28;20489;-33
2022/05/08 05:40:48;;;;;;;7.47;4.83;;;17.20;38.90;;;;;;5034768;28;20223;-33
2022/05/08 05:43:14;;;;;;;6.50;4.70;;;17.30;38.90;;;;;;5052758;28;20198;-33
2022/05/08 05:45:40;;;;;;;6.60;5.33;;;17.40;38.80;;;;;;5052912;28;20268;-33
2022/05/08 05:48:06;;;;;;;5.50;4.93;;;17.50;38.90;;;;;;5052697;28;20188;-33
2022/05/08 05:50:33;;;;;;;5.50;4.45;;;17.60;38.70;;;;;;5052323;28;20615;-33
2022/05/08 05:52:59;;;;;;;5.97;4.38;;;17.60;38.60;;;;;;5051622;28;20231;-33
2022/05/08 05:55:25;;;;;;;5.67;5.07;;;17.70;38.60;;;;;;5052812;28;20169;-33
2022/05/08 05:57:51;;;;;;;5.30;4.83;;;17.80;38.60;;;;;;5052695;28;20431;-33
2022/05/08 06:00:18;;;;;;;9.80;5.50;;;17.90;38.50;;;;;;5052754;28;20173;-33
2022/05/08 06:02:47;;;;;;;5.60;4.57;;;18.00;38.40;;;;;;5052413;28;20189;-33
2022/05/08 06:05:14;;;;;;;5.95;5.35;;;18.00;38.70;;;;;;5052688;28;20200;-33
2022/05/08 06:07:42;;;;;;;7.53;5.47;;;18.00;38.10;;;;;;5052368;28;20261;-33
2022/05/08 06:10:09;;;;;;;6.05;5.45;;;18.00;38.10;;;;;;5052493;28;20200;-33
2022/05/08 06:12:35;;;;;;;4.90;4.40;;;18.10;38.20;;;;;;5052241;28;20180;-33
2022/05/08 06:15:01;;;;;;;8.98;5.97;;;18.10;38.20;;;;;;5052303;28;20680;-33
2022/05/08 06:17:27;;;;;;;5.18;4.68;;;18.20;38.10;;;;;;5052281;28;20181;-33
2022/05/08 06:19:53;;;;;;;6.87;6.10;;;18.30;38.30;;;;;;5052133;28;20181;-33
2022/05/08 06:22:19;;;;;;;6.20;5.60;;;18.40;38.90;;;;;;5051927;28;20176;-33
2022/05/08 06:24:45;;;;;;;8.23;5.93;;;18.60;38.10;;;;;;5052448;28;20184;-33
2022/05/08 06:27:11;;;;;;;6.10;5.30;;;18.80;38.00;;;;;;5052397;28;20187;-33
2022/05/08 06:29:37;;;;;;;6.43;5.83;;;18.90;38.40;;;;;;5052061;28;20165;-33
2022/05/08 06:32:03;;;;;;;6.60;5.20;;;19.10;38.20;;;;;;5051873;28;20173;-33
2022/05/08 06:34:29;;;;;;;5.93;5.05;;;19.30;38.20;;;;;;5052113;28;20263;-33
2022/05/08 06:36:55;;;;;;;8.20;5.88;;;19.40;38.70;;;;;;5051991;28;20173;-33
2022/05/08 06:39:21;;;;;;;7.87;5.43;;;19.50;38.50;;;;;;5052005;28;20541;-33
2022/05/08 06:41:47;;;;;;;8.15;5.80;;;19.60;38.50;;;;;;5051781;28;20558;-33
2022/05/08 06:44:13;;;;;;;6.45;5.20;;;19.70;38.40;;;;;;5052143;28;20288;-33
2022/05/08 06:46:39;;;;;;;6.87;5.00;;;19.80;38.10;;;;;;5052002;28;20217;-33
2022/05/08 06:49:05;;;;;;;6.67;6.00;;;19.80;38.30;;;;;;5051917;28;20188;-33
2022/05/08 06:51:32;;;;;;;8.65;5.97;;;19.90;38.40;;;;;;5051514;28;20451;-33
2022/05/08 06:53:57;;;;;;;10.27;5.43;;;19.90;38.70;;;;;;5052060;28;20193;-33
2022/05/08 06:56:25;;;;;;;7.27;6.17;;;20.10;39.00;;;;;;5052018;28;20235;-33
2022/05/08 07:01:38;;;;;;;9.70;6.88;;;20.20;39.00;;;;;;5051884;28;20172;-33
2022/05/08 07:04:06;;;;;;;6.28;5.55;;;20.30;39.40;;;;;;5052142;28;20227;-33
2022/05/08 07:06:32;;;;;;;9.98;6.93;;;20.40;39.10;;;;;;5056046;28;20208;-33
2022/05/08 07:08:58;;;;;;;9.30;6.87;;;20.60;39.00;;;;;;5055750;28;20641;-33
2022/05/08 07:11:25;;;;;;;7.57;6.10;;;20.70;38.90;;;;;;5037597;28;20478;-33
2022/05/08 07:13:50;;;;;;;5.80;5.30;;;20.90;38.60;;;;;;5055475;28;20205;-33
2022/05/08 07:16:16;;;;;;;6.97;6.27;;;21.00;38.50;;;;;;5055633;28;20506;-34
2022/05/08 07:18:42;;;;;;;13.03;6.50;;;21.10;38.70;;;;;;5055807;28;20192;-33
2022/05/08 07:21:08;;;;;;;11.37;7.00;;;21.30;38.60;;;;;;5054577;28;20892;-33
2022/05/08 07:23:33;;;;;;;7.90;5.97;;;21.30;38.30;;;;;;5050036;28;20201;-33
2022/05/08 07:25:59;;;;;;;6.93;5.70;;;21.50;38.60;;;;;;5051689;28;20177;-33
2022/05/08 07:28:25;;;;;;;8.17;6.87;;;21.70;38.60;;;;;;5055584;28;20216;-33
2022/05/08 07:30:51;;;;;;;6.67;5.33;;;21.80;38.00;;;;;;5054541;28;20284;-33
2022/05/08 07:33:17;;;;;;;6.50;5.60;;;22.10;38.00;;;;;;5052018;28;20505;-33
2022/05/08 07:38:28;;;;;;;6.93;5.47;;;22.30;37.60;;;;;;5055538;28;20415;-33
2022/05/08 07:40:54;;;;;;;7.27;5.83;;;22.50;37.70;;;;;;5054904;28;20407;-33
2022/05/08 07:43:20;;;;;;;7.00;5.40;;;22.70;37.60;;;;;;5054994;28;20434;-33
2022/05/08 07:45:46;;;;;;;6.27;5.27;;;22.80;37.30;;;;;;5055010;28;20741;-33
2022/05/08 07:48:11;;;;;;;6.80;5.93;;;23.10;37.60;;;;;;5055077;28;20439;-34
2022/05/08 07:50:37;;;;;;;7.27;6.30;;;23.10;36.60;;;;;;5054533;28;20201;-34
2022/05/08 07:53:03;;;;;;;8.67;6.33;;;23.20;36.40;;;;;;5054838;28;20190;-33
2022/05/08 07:55:28;;;;;;;7.90;5.90;;;23.30;36.60;;;;;;5054891;28;20173;-33
2022/05/08 07:57:54;;;;;;;7.03;5.83;;;23.30;35.80;;;;;;5055100;28;20257;-33
2022/05/08 08:00:20;;;;;;;6.10;5.17;;;23.20;36.40;;;;;;5054667;28;20169;-33
2022/05/08 08:02:46;;;;;;;6.53;5.80;;;23.00;36.40;;;;;;5054702;28;20189;-33
2022/05/08 08:05:11;;;;;;;8.43;6.20;;;22.80;36.30;;;;;;5054686;28;20201;-33
2022/05/08 08:07:38;;;;;;;7.00;5.90;;;22.70;36.30;;;;;;5054683;28;20170;-33
2022/05/08 08:10:04;;;;;;;7.47;5.80;;;22.70;36.70;;;;;;5054806;28;20526;-33
2022/05/08 08:12:31;;;;;;;7.10;5.30;;;22.80;37.00;;;;;;5053983;28;20767;-32
2022/05/08 08:14:57;;;;;;;5.67;5.13;;;22.80;36.20;;;;;;5054717;28;20404;-33
2022/05/08 08:17:23;;;;;;;8.97;5.97;;;22.80;37.20;;;;;;5053430;28;20435;-33
2022/05/08 08:19:49;;;;;;;8.47;6.20;;;22.80;36.90;;;;;;5054721;28;20462;-33
2022/05/08 08:22:14;;;;;;;6.77;5.60;;;22.90;36.80;;;;;;5054496;28;20416;-33
2022/05/08 08:24:40;;;;;;;8.90;6.50;;;22.90;37.00;;;;;;5054345;28;20629;-33
2022/05/08 08:27:07;;;;;;;7.77;6.13;;;23.10;37.30;;;;;;5054399;28;20173;-33
2022/05/08 08:29:33;;;;;;;8.20;6.53;;;23.30;37.20;;;;;;5054202;28;20576;-33
2022/05/08 08:31:59;;;;;;;7.30;6.57;;;23.30;37.00;;;;;;5054196;28;20401;-33
2022/05/08 08:34:26;;;;;;;7.43;6.33;;;23.40;36.90;;;;;;5054095;28;20795;-33
2022/05/08 08:36:52;;;;;;;8.20;6.40;;;23.40;37.00;;;;;;5054223;28;20172;-33
2022/05/08 08:39:24;;;;;;;7.77;6.10;;;23.50;37.30;;;;;;5054031;28;20407;-33
2022/05/08 08:42:00;;;;;;;8.00;5.50;;;23.40;36.20;;;;;;5053442;28;20395;-33
2022/05/08 08:47:43;;;;;;;6.40;5.07;;;23.50;36.60;;;;;;5012381;28;20409;-33
2022/05/08 08:50:10;;;;;;;6.90;4.80;;;23.60;36.90;;;;;;5011844;28;20453;-33
2022/05/08 08:52:36;;;;;;;5.87;4.97;;;23.90;36.90;;;;;;5051125;28;20420;-33
2022/05/08 08:55:06;;;;;;;7.93;6.50;;;24.10;36.70;;;;;;5053717;28;20404;-33
2022/05/08 08:57:32;;;;;;;7.83;6.00;;;24.30;36.00;;;;;;5053867;28;20412;-33
2022/05/08 08:59:58;;;;;;;7.27;5.83;;;24.40;35.70;;;;;;5052727;28;20408;-33
2022/05/08 09:02:24;;;;;;;6.77;5.93;;;24.50;35.50;;;;;;5053249;28;20189;-33
2022/05/08 09:04:50;;;;;;;6.70;6.00;;;24.60;35.60;;;;;;5053700;28;20814;-33
2022/05/08 09:07:35;;;;;;;7.33;5.57;;;24.70;35.50;;;;;;5053505;28;20173;-33
2022/05/08 09:10:27;;;;;;;9.57;6.37;;;24.90;35.70;;;;;;5053028;28;20538;-33
2022/05/08 09:12:53;;;;;;;10.10;5.70;;;25.00;35.40;;;;;;5053263;28;20501;-33
2022/05/08 09:15:20;;;;;;;7.47;6.57;;;25.10;34.20;;;;;;5053438;28;20408;-33
2022/05/08 09:17:48;;;;;;;8.50;4.40;;;25.20;35.10;;;;;;5053386;28;20161;-33
2022/05/08 09:20:26;;;;;;;5.87;5.27;;;25.40;33.90;;;;;;5053184;28;20491;-33
2022/05/08 09:23:04;;;;;;;7.30;5.00;;;25.60;34.30;;;;;;5053130;28;20978;-33
2022/05/08 09:25:44;;;;;;;5.00;4.30;;;25.80;33.10;;;;;;5053135;28;20510;-33
2022/05/08 09:28:14;;;;;;;5.17;4.27;;;25.70;32.70;;;;;;5053152;28;20435;-33
2022/05/08 09:30:59;;;;;;;7.73;4.90;;;25.80;33.00;;;;;;5053026;28;20455;-33
2022/05/08 09:33:31;;;;;;;5.43;4.93;;;26.00;33.70;;;;;;5053105;28;20534;-33
2022/05/08 09:35:58;;;;;;;6.20;4.70;;;26.10;33.30;;;;;;5053158;28;20769;-33
2022/05/08 09:38:40;;;;;;;9.70;6.57;;;26.10;31.90;;;;;;5053022;28;20432;-33
2022/05/08 09:41:07;;;;;;;7.30;5.30;;;25.80;32.20;;;;;;5052833;28;20446;-33
2022/05/08 09:43:36;;;;;;;7.57;5.63;;;25.80;32.90;;;;;;5052791;28;20435;-33
2022/05/08 09:46:04;;;;;;;5.63;4.97;;;25.90;31.80;;;;;;5052767;28;20491;-33
2022/05/08 09:48:31;;;;;;;5.67;4.47;;;26.00;33.10;;;;;;5053244;28;20745;-33
2022/05/08 09:51:08;;;;;;;6.63;4.67;;;26.10;32.90;;;;;;5052559;28;20451;-33
2022/05/08 09:53:36;;;;;;;6.90;5.87;;;26.30;33.40;;;;;;5052809;28;20424;-33
2022/05/08 09:56:05;;;;;;;6.27;5.63;;;26.60;33.30;;;;;;5052730;28;20407;-33
2022/05/08 09:58:31;;;;;;;10.23;5.30;;;26.70;33.20;;;;;;5052574;28;20932;-33
2022/05/08 10:00:57;;;;;;;7.37;5.33;;;26.80;32.60;;;;;;5052552;28;20494;-33
2022/05/08 10:03:24;;;;;;;8.10;7.30;;;26.80;33.10;;;;;;5052673;28;20532;-33
2022/05/08 10:05:50;;;;;;;6.10;5.50;;;26.80;32.60;;;;;;5052663;28;20408;-33
2022/05/08 10:08:19;;;;;;;6.27;5.20;;;26.70;32.50;;;;;;5052522;28;20407;-33
2022/05/08 10:13:56;;;;;;;5.87;4.83;;;26.80;32.20;;;;;;5052511;28;20450;-33
2022/05/08 10:16:55;;;;;;;7.30;5.60;;;26.90;31.80;;;;;;5052555;28;20407;-33
2022/05/08 10:19:27;;;;;;;7.00;5.20;;;27.00;32.10;;;;;;5052253;28;20407;-33
2022/05/08 10:21:55;;;;;;;8.73;6.13;;;26.90;31.70;;;;;;5052054;28;20789;-33
2022/05/08 10:24:33;;;;;;;4.87;3.67;;;26.90;31.80;;;;;;5052162;28;20426;-33
2022/05/08 10:27:11;;;;;;;4.90;4.40;;;27.00;32.30;;;;;;5052253;28;20403;-33
2022/05/08 10:30:01;;;;;;;7.03;6.17;;;27.10;32.00;;;;;;5052223;28;20822;-33
2022/05/08 10:32:33;;;;;;;6.37;5.70;;;27.10;31.70;;;;;;5051388;28;20466;-33
2022/05/08 10:35:27;;;;;;;7.90;5.53;;;26.90;31.50;;;;;;5051997;28;20396;-33
2022/05/08 10:38:16;;;;;;;5.27;4.50;;;26.80;32.20;;;;;;5052011;28;20414;-33
2022/05/08 10:40:42;;;;;;;5.93;4.23;;;26.80;32.10;;;;;;5051144;28;20407;-33
2022/05/08 10:43:14;;;;;;;5.83;5.17;;;26.90;31.80;;;;;;5051960;28;20436;-33
2022/05/08 10:45:43;;;;;;;5.87;5.10;;;27.00;32.40;;;;;;5052438;28;20403;-33
2022/05/08 10:48:19;;;;;;;6.20;5.30;;;27.10;32.00;;;;;;5051764;28;20412;-33
2022/05/08 10:50:59;;;;;;;6.33;5.70;;;27.20;32.40;;;;;;5051487;28;20972;-33
2022/05/08 10:53:27;;;;;;;6.97;6.27;;;27.10;31.10;;;;;;5051881;28;20451;-33
2022/05/08 10:56:04;;;;;;;6.60;5.90;;;27.00;32.10;;;;;;5051837;28;20408;-33
2022/05/08 10:58:31;;;;;;;6.10;4.17;;;27.10;32.50;;;;;;5052055;28;20489;-33
2022/05/08 11:00:58;;;;;;;6.47;5.33;;;27.20;32.60;;;;;;5051464;28;20408;-33
2022/05/08 11:03:25;;;;;;;6.23;4.97;;;27.30;31.80;;;;;;5052145;28;20506;-33
2022/05/08 11:05:52;;;;;;;5.87;4.00;;;27.30;32.30;;;;;;5051873;28;20407;-33
2022/05/08 11:08:36;;;;;;;5.40;4.10;;;27.40;32.40;;;;;;5051982;28;20478;-33
2022/05/08 11:11:12;;;;;;;4.70;4.17;;;27.50;31.40;;;;;;5051540;28;20513;-33
2022/05/08 11:13:43;;;;;;;6.60;3.93;;;27.60;31.20;;;;;;5051499;28;20819;-33
2022/05/08 11:16:11;;;;;;;8.57;5.00;;;27.70;30.90;;;;;;5051739;28;20400;-33
2022/05/08 11:18:37;;;;;;;6.40;4.20;;;27.70;30.50;;;;;;5052178;28;20499;-32
2022/05/08 11:21:08;;;;;;;9.00;4.07;;;27.80;31.30;;;;;;5051568;28;20853;-32
2022/05/08 11:23:35;;;;;;;5.60;4.33;;;27.90;31.30;;;;;;5051608;28;20451;-32
2022/05/08 11:26:05;;;;;;;4.90;3.77;;;28.20;31.80;;;;;;5051433;28;20458;-32
2022/05/08 11:28:32;;;;;;;5.37;4.40;;;28.30;31.10;;;;;;5052399;28;20419;-32
2022/05/08 11:30:59;;;;;;;4.80;4.30;;;28.30;30.40;;;;;;5051128;28;20496;-32
2022/05/08 11:36:30;;;;;;;8.80;4.50;;;27.90;30.40;;;;;;5051849;28;20399;-31
2022/05/08 11:39:10;;;;;;;5.23;4.10;;;27.80;30.60;;;;;;5051499;28;20415;-32
2022/05/08 11:41:44;;;;;;;5.33;3.60;;;27.70;30.20;;;;;;5051272;28;20773;-32
2022/05/08 11:44:13;;;;;;;5.27;4.13;;;27.80;30.90;;;;;;5051461;28;20420;-32
2022/05/08 11:46:55;;;;;;;5.90;4.30;;;27.90;30.90;;;;;;5052132;28;20403;-32
2022/05/08 11:49:29;;;;;;;5.97;4.27;;;28.10;31.60;;;;;;5051642;28;20432;-32
2022/05/08 11:51:57;;;;;;;5.03;3.80;;;28.30;31.40;;;;;;5054206;28;20450;-32
2022/05/08 11:54:32;;;;;;;5.77;4.83;;;28.50;31.20;;;;;;5054939;28;20434;-32
2022/05/08 11:57:21;;;;;;;4.87;4.10;;;28.70;30.30;;;;;;5054975;28;20724;-32
2022/05/08 12:00:06;;;;;;;4.93;4.43;;;28.70;30.20;;;;;;5054688;28;21032;-32
2022/05/08 12:02:43;;;;;;;9.10;4.43;;;28.50;29.00;;;;;;5054363;28;20407;-32
2022/05/08 12:05:21;;;;;;;4.90;4.27;;;28.30;29.60;;;;;;5054928;28;20399;-32
2022/05/08 12:07:47;;;;;;;7.93;5.07;;;28.10;30.00;;;;;;5054614;28;20413;-32
2022/05/08 12:10:13;;;;;;;4.23;3.50;;;28.00;30.10;;;;;;5054727;28;20555;-32
2022/05/08 12:12:40;;;;;;;7.90;3.83;;;27.90;28.60;;;;;;5054244;28;20440;-32
2022/05/08 12:15:06;;;;;;;5.60;4.90;;;27.70;29.40;;;;;;5055018;28;20533;-32
2022/05/08 12:17:43;;;;;;;5.50;4.03;;;27.60;30.20;;;;;;5054452;28;20408;-32
2022/05/08 12:20:09;;;;;;;5.80;3.97;;;27.50;30.60;;;;;;5054308;28;20548;-32
2022/05/08 12:22:35;;;;;;;5.13;4.40;;;27.50;30.60;;;;;;5053949;28;20490;-32
2022/05/08 12:25:01;;;;;;;4.70;3.23;;;27.50;30.10;;;;;;5054447;28;20185;-32
2022/05/08 12:27:28;;;;;;;5.27;4.37;;;27.40;30.40;;;;;;5054349;28;20407;-32
2022/05/08 12:29:54;;;;;;;5.00;3.40;;;27.20;30.40;;;;;;5054149;28;20169;-32
2022/05/08 12:32:20;;;;;;;3.93;3.10;;;27.10;30.40;;;;;;5054047;28;20415;-32
2022/05/08 12:34:47;;;;;;;5.40;3.87;;;26.90;30.40;;;;;;5054098;28;20177;-32
2022/05/08 12:37:15;;;;;;;4.50;3.70;;;26.80;30.50;;;;;;5054151;28;20462;-32
2022/05/08 12:39:42;;;;;;;4.00;3.33;;;26.70;30.00;;;;;;5054094;28;20407;-32
2022/05/08 12:42:09;;;;;;;5.10;3.90;;;26.60;29.50;;;;;;5053935;28;20896;-32
2022/05/08 12:44:39;;;;;;;5.37;4.27;;;26.40;29.90;;;;;;5054691;28;20861;-32
2022/05/08 12:47:09;;;;;;;8.20;3.53;;;26.30;30.40;;;;;;5054576;28;20400;-32
2022/05/08 12:49:36;;;;;;;5.60;4.57;;;26.20;31.00;;;;;;5036667;28;20415;-32
2022/05/08 12:52:04;;;;;;;4.70;3.07;;;26.30;31.30;;;;;;5053564;28;20971;-32
2022/05/08 12:54:30;;;;;;;4.17;3.00;;;26.40;31.10;;;;;;5035933;28;20451;-32
2022/05/08 12:56:56;;;;;;;4.40;3.07;;;26.70;30.90;;;;;;5053973;28;20419;-32
2022/05/08 13:02:07;;;;;;;3.43;2.70;;;27.30;29.90;;;;;;5053009;28;20411;-32
2022/05/08 13:04:33;;;;;;;3.43;2.90;;;27.60;29.60;;;;;;5053830;28;20481;-32
2022/05/08 13:06:59;;;;;;;2.93;2.13;;;27.90;29.60;;;;;;5053642;28;20408;-32
2022/05/08 13:09:25;;;;;;;3.67;2.40;;;28.30;29.90;;;;;;5053788;28;20177;-32
2022/05/08 13:11:50;;;;;;;5.60;3.10;;;28.50;28.70;;;;;;5053217;28;20698;-32
2022/05/08 13:14:16;;;;;;;2.93;2.33;;;28.40;28.10;;;;;;5053222;28;20213;-32